Time;durP1;ratioP1;P1;durP2;ratioP2;P2;SDS_P1;SDS_P2;PMS_P1;PMS_P2;Temp;Humidity;BMP_temperature;BMP_pressure;BME280_temperature;BME280_humidity;BME280_pressure;Samples;Min_cycle;Max_cycle;Signal;HPM_P1;HPM_P2
2021/05/24 00:00:08;;;;;;;4.50;1.57;;;11.50;99.90;;;;;;5096799;28;20921;-69
2021/05/24 00:02:34;;;;;;;1.30;1.17;;;11.40;99.90;;;;;;5096888;28;20420;-69
2021/05/24 00:04:59;;;;;;;3.70;1.73;;;11.40;99.90;;;;;;5106271;28;20796;-69
2021/05/24 00:07:25;;;;;;;2.67;1.30;;;11.40;99.90;;;;;;5097800;28;20451;-69
2021/05/24 00:09:50;;;;;;;1.47;1.10;;;11.40;99.90;;;;;;5096429;28;20193;-69
2021/05/24 00:12:24;;;;;;;3.97;2.37;;;11.40;99.90;;;;;;5096452;28;20152;-69
2021/05/24 00:14:50;;;;;;;2.87;1.93;;;11.30;99.90;;;;;;5097131;28;20159;-69
2021/05/24 00:17:15;;;;;;;2.67;1.03;;;11.30;99.90;;;;;;5096738;28;20416;-69
2021/05/24 00:19:41;;;;;;;2.37;1.20;;;11.30;99.90;;;;;;5096371;28;20162;-69
2021/05/24 00:22:06;;;;;;;3.10;1.20;;;11.30;99.90;;;;;;5096138;28;20185;-69
2021/05/24 00:24:32;;;;;;;2.80;1.00;;;11.30;99.90;;;;;;5096799;28;20179;-69
2021/05/24 00:26:58;;;;;;;2.20;1.27;;;11.30;99.90;;;;;;5096123;28;20170;-69
2021/05/24 00:29:25;;;;;;;3.67;1.30;;;11.20;99.90;;;;;;5096032;28;20209;-69
2021/05/24 00:31:50;;;;;;;2.43;1.30;;;11.20;99.90;;;;;;5102722;28;20248;-69
2021/05/24 00:34:16;;;;;;;2.57;1.63;;;11.20;99.90;;;;;;5112879;28;20409;-69
2021/05/24 00:36:42;;;;;;;2.80;1.30;;;11.20;99.90;;;;;;5095887;28;20205;-69
2021/05/24 00:39:08;;;;;;;2.73;1.30;;;11.20;99.90;;;;;;5095898;28;20162;-69
2021/05/24 00:41:36;;;;;;;2.80;1.20;;;11.10;99.90;;;;;;5115756;28;20174;-69
2021/05/24 00:44:02;;;;;;;3.17;1.30;;;11.10;99.90;;;;;;5116228;28;20466;-69
2021/05/24 00:46:28;;;;;;;4.20;1.37;;;11.20;99.90;;;;;;5116339;28;20908;-69
2021/05/24 00:48:53;;;;;;;3.47;1.50;;;11.20;99.90;;;;;;5116151;28;20538;-68
2021/05/24 00:51:19;;;;;;;3.10;1.17;;;11.20;99.90;;;;;;5116138;28;20158;-68
2021/05/24 00:53:45;;;;;;;3.10;1.10;;;11.20;99.90;;;;;;5116067;28;20151;-68
2021/05/24 00:56:10;;;;;;;2.20;1.30;;;11.20;99.90;;;;;;5115519;28;20161;-68
2021/05/24 00:58:36;;;;;;;3.13;1.60;;;11.30;99.90;;;;;;5095978;28;20202;-68
2021/05/24 01:01:02;;;;;;;4.80;1.20;;;11.20;99.90;;;;;;5095120;28;20257;-68
2021/05/24 01:03:27;;;;;;;2.70;1.57;;;11.20;99.90;;;;;;5095437;28;20169;-68
2021/05/24 01:05:53;;;;;;;2.60;1.17;;;11.20;99.90;;;;;;5112895;28;20211;-68
2021/05/24 01:08:18;;;;;;;3.23;1.30;;;11.30;99.90;;;;;;5115837;28;20234;-68
2021/05/24 01:10:45;;;;;;;1.60;1.03;;;11.30;99.90;;;;;;5115719;28;20528;-68
2021/05/24 01:13:12;;;;;;;1.97;1.10;;;11.30;99.90;;;;;;5115025;28;20174;-68
2021/05/24 01:15:38;;;;;;;1.27;1.17;;;11.30;99.90;;;;;;5095474;28;20893;-68
2021/05/24 01:18:05;;;;;;;1.10;1.00;;;11.40;99.90;;;;;;5095185;28;20411;-68
2021/05/24 01:20:31;;;;;;;1.70;1.10;;;11.40;99.90;;;;;;5095194;28;20434;-68
2021/05/24 01:25:44;;;;;;;2.40;1.03;;;11.50;99.90;;;;;;5090244;28;20576;-69
2021/05/24 01:28:12;;;;;;;3.67;1.77;;;11.60;99.90;;;;;;5090373;28;20408;-70
2021/05/24 01:30:39;;;;;;;2.50;0.90;;;11.60;99.90;;;;;;5082603;28;20430;-70
2021/05/24 01:33:06;;;;;;;2.10;1.63;;;11.60;99.90;;;;;;5066604;28;20410;-69
2021/05/24 01:35:32;;;;;;;3.07;1.00;;;11.60;99.90;;;;;;5069921;28;20398;-69
2021/05/24 01:37:58;;;;;;;5.83;1.27;;;11.60;99.90;;;;;;5070043;28;20390;-69
2021/05/24 01:40:24;;;;;;;1.90;1.10;;;11.60;99.90;;;;;;5069987;28;20386;-69
2021/05/24 01:42:55;;;;;;;4.90;1.13;;;11.60;99.90;;;;;;5070029;28;20404;-69
2021/05/24 01:45:20;;;;;;;3.63;1.10;;;11.60;99.90;;;;;;5069810;28;20832;-69
2021/05/24 01:47:46;;;;;;;3.43;1.60;;;11.70;99.90;;;;;;5068968;28;20466;-70
2021/05/24 01:50:13;;;;;;;1.60;0.90;;;11.70;99.90;;;;;;5069788;28;20167;-70
2021/05/24 01:52:41;;;;;;;2.17;1.00;;;11.70;99.90;;;;;;5069793;28;20155;-69
2021/05/24 01:55:07;;;;;;;3.53;1.03;;;11.60;99.90;;;;;;5069813;28;20434;-69
2021/05/24 01:57:33;;;;;;;2.00;1.13;;;11.60;99.90;;;;;;5069725;28;20488;-69
2021/05/24 01:59:58;;;;;;;1.73;0.80;;;11.60;99.90;;;;;;5054259;28;20426;-70
2021/05/24 02:02:24;;;;;;;1.60;1.17;;;11.60;99.90;;;;;;5049598;28;20784;-70
2021/05/24 02:04:50;;;;;;;3.83;1.33;;;11.60;99.90;;;;;;5049396;28;20196;-70
2021/05/24 02:07:16;;;;;;;3.43;1.40;;;11.60;99.90;;;;;;5049492;28;20211;-69
2021/05/24 02:09:42;;;;;;;2.10;1.30;;;11.50;99.90;;;;;;5049632;28;20179;-69
2021/05/24 02:12:08;;;;;;;1.10;0.80;;;11.50;99.90;;;;;;5049440;28;20195;-69
2021/05/24 02:14:33;;;;;;;1.10;1.00;;;11.50;99.90;;;;;;5049402;28;20426;-69
2021/05/24 02:16:59;;;;;;;1.00;0.90;;;11.50;99.90;;;;;;5049170;28;20164;-70
2021/05/24 02:19:25;;;;;;;3.10;1.40;;;11.50;99.90;;;;;;5049242;28;20183;-70
2021/05/24 02:21:50;;;;;;;1.00;0.90;;;11.40;99.90;;;;;;5049352;28;20188;-69
2021/05/24 02:24:16;;;;;;;3.60;1.30;;;11.40;99.90;;;;;;5049161;28;20563;-69
2021/05/24 02:26:43;;;;;;;1.83;1.07;;;11.40;99.90;;;;;;5049182;28;20498;-69
2021/05/24 02:29:09;;;;;;;2.37;1.00;;;11.30;99.90;;;;;;5049177;28;20669;-69
2021/05/24 02:31:35;;;;;;;5.03;1.30;;;11.30;99.90;;;;;;5049988;28;20502;-69
2021/05/24 02:34:02;;;;;;;5.03;1.30;;;11.40;99.90;;;;;;5049216;28;20909;-69
2021/05/24 02:36:28;;;;;;;4.00;1.20;;;11.30;99.90;;;;;;5038932;28;20611;-66
2021/05/24 02:38:54;;;;;;;2.63;1.30;;;11.30;99.90;;;;;;5035523;28;20422;-66
2021/05/24 02:41:21;;;;;;;2.73;1.50;;;11.30;99.90;;;;;;5035630;28;20238;-66
2021/05/24 02:43:46;;;;;;;2.40;1.37;;;11.30;99.90;;;;;;5035412;28;20447;-66
2021/05/24 02:46:12;;;;;;;2.20;1.23;;;11.20;99.90;;;;;;5035560;28;20393;-66
2021/05/24 02:48:38;;;;;;;1.87;1.20;;;11.20;99.90;;;;;;5035476;28;20189;-66
2021/05/24 02:51:05;;;;;;;2.23;1.10;;;11.20;99.90;;;;;;5035502;28;20165;-66
2021/05/24 02:53:30;;;;;;;2.20;0.90;;;11.10;99.90;;;;;;5035564;28;20186;-66
2021/05/24 02:55:56;;;;;;;2.03;0.90;;;11.10;99.90;;;;;;5035216;28;20494;-66
2021/05/24 02:58:21;;;;;;;2.47;1.00;;;11.10;99.90;;;;;;5035581;28;20161;-67
2021/05/24 03:00:47;;;;;;;1.70;1.10;;;11.10;99.90;;;;;;5035256;28;20157;-66
2021/05/24 03:03:13;;;;;;;1.33;1.03;;;11.10;99.90;;;;;;5035181;28;20252;-66
2021/05/24 03:05:39;;;;;;;2.63;1.10;;;11.10;99.90;;;;;;5034978;28;20561;-66
2021/05/24 03:08:05;;;;;;;1.93;1.17;;;11.10;99.90;;;;;;5035053;28;20392;-66
2021/05/24 03:10:31;;;;;;;4.03;1.43;;;11.00;99.90;;;;;;5035159;28;20161;-67
2021/05/24 03:12:56;;;;;;;1.67;1.03;;;11.00;99.90;;;;;;5035310;28;20510;-67
2021/05/24 03:15:24;;;;;;;2.00;1.00;;;11.00;99.90;;;;;;5034892;28;20610;-67
2021/05/24 03:17:49;;;;;;;1.10;1.00;;;11.00;99.90;;;;;;5034953;28;20185;-67
2021/05/24 03:20:17;;;;;;;3.60;1.57;;;11.00;99.90;;;;;;5034996;28;20427;-67
2021/05/24 03:22:45;;;;;;;2.00;1.20;;;11.00;99.90;;;;;;5034910;28;20200;-67
2021/05/24 03:25:13;;;;;;;1.27;1.00;;;11.00;99.90;;;;;;5034300;28;20873;-67
2021/05/24 03:27:39;;;;;;;4.00;1.30;;;11.00;99.90;;;;;;5035352;28;20400;-67
2021/05/24 03:30:07;;;;;;;3.00;1.20;;;11.00;99.90;;;;;;5034310;28;20415;-67
2021/05/24 03:32:34;;;;;;;1.80;0.90;;;11.00;99.90;;;;;;5034919;28;20416;-67
2021/05/24 03:34:59;;;;;;;2.90;1.17;;;11.00;99.90;;;;;;5034620;28;20396;-67
2021/05/24 03:37:25;;;;;;;3.00;1.50;;;11.00;99.90;;;;;;5034503;28;20438;-68
2021/05/24 03:39:51;;;;;;;2.70;1.30;;;11.10;99.90;;;;;;5034530;28;20185;-67
2021/05/24 03:42:17;;;;;;;2.83;1.50;;;11.10;99.90;;;;;;5034977;28;20172;-68
2021/05/24 03:44:44;;;;;;;1.93;1.00;;;11.20;99.90;;;;;;5034438;28;20529;-67
2021/05/24 03:47:11;;;;;;;3.73;1.00;;;11.20;99.90;;;;;;5033294;28;20650;-67
2021/05/24 03:49:38;;;;;;;2.27;1.00;;;11.20;99.90;;;;;;5034503;28;20392;-67
2021/05/24 03:52:04;;;;;;;2.20;1.10;;;11.30;99.90;;;;;;5034268;28;20400;-67
2021/05/24 03:54:30;;;;;;;1.87;1.00;;;11.30;99.90;;;;;;5034385;28;20522;-67
2021/05/24 03:56:56;;;;;;;2.00;1.27;;;11.40;99.90;;;;;;5034616;28;20864;-67
2021/05/24 03:59:21;;;;;;;2.03;1.23;;;11.40;99.90;;;;;;5034128;28;20275;-67
2021/05/24 04:01:49;;;;;;;3.20;1.13;;;11.50;99.90;;;;;;5034191;28;20210;-68
2021/05/24 04:04:15;;;;;;;3.43;1.57;;;11.50;99.90;;;;;;5033907;28;20564;-68
2021/05/24 04:06:42;;;;;;;1.30;1.03;;;11.60;99.90;;;;;;5034025;28;20399;-67
2021/05/24 04:09:08;;;;;;;2.77;0.90;;;11.60;99.90;;;;;;5033943;28;20154;-67
2021/05/24 04:11:33;;;;;;;3.00;1.13;;;11.70;99.90;;;;;;5034846;28;20418;-67
2021/05/24 04:13:59;;;;;;;2.60;1.20;;;11.70;99.90;;;;;;5033835;28;20251;-67
2021/05/24 04:16:25;;;;;;;2.03;1.17;;;11.70;99.90;;;;;;5033879;28;20557;-67
2021/05/24 04:18:51;;;;;;;1.97;1.13;;;11.70;99.90;;;;;;5033829;28;20189;-68
2021/05/24 04:21:17;;;;;;;2.10;1.60;;;11.80;99.90;;;;;;5033703;28;20181;-67
2021/05/24 04:23:44;;;;;;;3.00;1.00;;;11.90;99.90;;;;;;5033850;28;20511;-67
2021/05/24 04:26:13;;;;;;;4.03;1.30;;;11.90;99.90;;;;;;5034762;28;20384;-67
2021/05/24 04:28:39;;;;;;;1.20;1.03;;;12.00;99.90;;;;;;5033890;28;20889;-67
2021/05/24 04:31:05;;;;;;;5.03;1.17;;;12.00;99.90;;;;;;5033737;28;20423;-67
2021/05/24 04:33:30;;;;;;;3.67;1.33;;;12.10;99.90;;;;;;5033560;28;20187;-67
2021/05/24 04:35:57;;;;;;;2.67;1.17;;;12.10;99.90;;;;;;5033415;28;20511;-67
2021/05/24 04:38:23;;;;;;;1.50;0.80;;;12.20;99.90;;;;;;5033357;28;20173;-67
2021/05/24 04:40:49;;;;;;;1.97;1.10;;;12.30;99.90;;;;;;5034613;28;20700;-68
2021/05/24 04:43:17;;;;;;;2.27;1.00;;;12.30;99.90;;;;;;5033430;28;20392;-67
2021/05/24 04:45:43;;;;;;;8.70;1.60;;;12.30;99.90;;;;;;5033257;28;20629;-68
2021/05/24 04:48:09;;;;;;;1.20;0.90;;;12.40;99.90;;;;;;5033407;28;20395;-67
2021/05/24 04:50:35;;;;;;;4.73;1.43;;;12.40;99.90;;;;;;5033124;28;20157;-68
2021/05/24 04:53:01;;;;;;;1.73;1.10;;;12.40;99.90;;;;;;5033556;28;20266;-67
2021/05/24 04:55:26;;;;;;;2.30;1.03;;;12.50;99.90;;;;;;5034172;28;20917;-67
2021/05/24 04:57:52;;;;;;;2.70;1.03;;;12.50;99.90;;;;;;5033341;28;20251;-67
2021/05/24 05:00:18;;;;;;;2.27;1.30;;;12.50;99.90;;;;;;5033102;28;20208;-68
2021/05/24 05:02:43;;;;;;;1.07;0.73;;;12.60;99.90;;;;;;5033282;28;20204;-67
2021/05/24 05:05:10;;;;;;;2.47;1.27;;;12.70;99.90;;;;;;5033754;28;20199;-67
2021/05/24 05:07:36;;;;;;;2.27;1.00;;;12.80;99.90;;;;;;5045283;28;20629;-67
2021/05/24 05:10:02;;;;;;;1.37;1.00;;;12.80;99.90;;;;;;5052127;28;20421;-67
2021/05/24 05:12:28;;;;;;;2.90;1.50;;;12.90;99.90;;;;;;5041576;28;20522;-68
2021/05/24 05:14:55;;;;;;;1.87;1.10;;;12.90;99.90;;;;;;5033066;28;20462;-68
2021/05/24 05:17:21;;;;;;;1.20;0.80;;;13.00;99.90;;;;;;5032990;28;20469;-68
2021/05/24 05:19:47;;;;;;;1.57;0.90;;;13.00;99.90;;;;;;5032816;28;20399;-68
2021/05/24 05:22:13;;;;;;;3.97;1.00;;;13.10;99.90;;;;;;5033185;28;20449;-68
2021/05/24 05:24:38;;;;;;;3.73;1.00;;;13.10;99.90;;;;;;5033495;28;20279;-68
2021/05/24 05:27:04;;;;;;;2.33;1.03;;;13.20;99.90;;;;;;5032993;28;20833;-68
2021/05/24 05:29:30;;;;;;;1.60;0.80;;;13.20;99.90;;;;;;5032655;28;20199;-68
2021/05/24 05:31:55;;;;;;;2.63;1.30;;;13.20;99.90;;;;;;5032794;28;20259;-68
2021/05/24 05:34:21;;;;;;;2.53;1.23;;;13.20;99.90;;;;;;5032978;28;20153;-68
2021/05/24 05:36:46;;;;;;;1.30;0.90;;;13.20;99.90;;;;;;5032923;28;20171;-68
2021/05/24 05:39:12;;;;;;;4.23;1.00;;;13.20;99.90;;;;;;5033580;28;20245;-68
2021/05/24 05:41:38;;;;;;;1.23;0.93;;;13.20;99.90;;;;;;5051369;28;20169;-68
2021/05/24 05:44:04;;;;;;;2.40;1.17;;;13.20;99.90;;;;;;5052598;28;20202;-68
2021/05/24 05:46:31;;;;;;;1.57;1.00;;;13.20;99.90;;;;;;5041047;28;20180;-68
2021/05/24 05:48:56;;;;;;;3.47;1.13;;;13.30;99.90;;;;;;5032761;28;20435;-68
2021/05/24 05:51:22;;;;;;;0.90;0.83;;;13.30;99.90;;;;;;5033413;28;20392;-68
2021/05/24 05:53:47;;;;;;;1.43;1.27;;;13.30;99.90;;;;;;5033491;28;20260;-68
2021/05/24 05:56:13;;;;;;;1.33;0.90;;;13.40;99.90;;;;;;5032680;28;20542;-68
2021/05/24 05:58:41;;;;;;;1.27;0.97;;;13.40;99.90;;;;;;5032636;28;20193;-68
2021/05/24 06:01:06;;;;;;;3.10;1.50;;;13.50;99.90;;;;;;5032539;28;20180;-68
2021/05/24 06:03:33;;;;;;;2.90;1.33;;;13.50;99.90;;;;;;5032394;28;20411;-68
2021/05/24 06:05:59;;;;;;;1.10;1.00;;;13.50;99.90;;;;;;5033658;28;20145;-68
2021/05/24 06:08:25;;;;;;;2.07;0.80;;;13.60;99.90;;;;;;5033857;28;20481;-68
2021/05/24 06:10:50;;;;;;;3.43;0.90;;;13.70;99.90;;;;;;5045463;28;20179;-68
2021/05/24 06:13:16;;;;;;;2.80;1.20;;;13.80;99.90;;;;;;5056445;28;20172;-68
2021/05/24 06:15:43;;;;;;;1.77;1.23;;;13.80;99.90;;;;;;5056182;28;20640;-68
2021/05/24 06:18:08;;;;;;;2.30;0.90;;;13.90;99.90;;;;;;5056191;28;20685;-67
2021/05/24 06:20:34;;;;;;;1.90;1.10;;;14.00;99.90;;;;;;5044751;28;20579;-68
2021/05/24 06:23:00;;;;;;;2.57;1.30;;;14.10;99.90;;;;;;5037093;28;20196;-67
2021/05/24 06:25:26;;;;;;;2.57;1.03;;;14.10;99.90;;;;;;5035907;28;20208;-68
2021/05/24 06:27:51;;;;;;;3.47;1.00;;;14.20;99.90;;;;;;5036130;28;20252;-67
2021/05/24 06:30:17;;;;;;;2.07;0.90;;;14.20;99.90;;;;;;5035968;28;20883;-68
2021/05/24 06:32:44;;;;;;;2.03;0.90;;;14.40;99.90;;;;;;5036026;28;20227;-67
2021/05/24 06:35:09;;;;;;;5.33;1.17;;;14.40;99.90;;;;;;5036686;28;20457;-67
2021/05/24 06:37:35;;;;;;;1.77;1.00;;;14.50;99.90;;;;;;5036409;28;20415;-67
2021/05/24 06:40:03;;;;;;;2.87;1.00;;;14.60;99.90;;;;;;5035420;28;21472;-68
2021/05/24 06:42:28;;;;;;;1.33;0.60;;;14.70;99.90;;;;;;5035942;28;20618;-68
2021/05/24 06:44:54;;;;;;;0.90;0.63;;;14.80;99.90;;;;;;5035679;28;20450;-67
2021/05/24 06:47:20;;;;;;;1.67;1.10;;;14.90;99.90;;;;;;5035845;28;20177;-68
2021/05/24 06:49:45;;;;;;;1.77;0.80;;;15.10;99.70;;;;;;5036464;28;20192;-68
2021/05/24 06:52:11;;;;;;;1.17;0.93;;;15.20;98.60;;;;;;5036948;28;20634;-68
2021/05/24 06:54:38;;;;;;;2.60;0.80;;;15.30;99.00;;;;;;5035423;28;20177;-68
2021/05/24 06:57:04;;;;;;;1.50;0.70;;;15.40;97.90;;;;;;5035537;28;20236;-68
2021/05/24 06:59:31;;;;;;;3.70;1.27;;;15.50;97.10;;;;;;5035333;28;20435;-68
2021/05/24 07:01:58;;;;;;;2.63;0.93;;;15.60;97.00;;;;;;5035554;28;20482;-68
2021/05/24 07:04:25;;;;;;;4.33;0.97;;;15.70;96.40;;;;;;5036144;28;20443;-68
2021/05/24 07:06:50;;;;;;;1.60;1.03;;;15.80;96.00;;;;;;5036114;28;20394;-68
2021/05/24 07:09:16;;;;;;;3.00;0.90;;;15.90;96.50;;;;;;5035456;28;20757;-68
2021/05/24 07:11:41;;;;;;;2.00;0.73;;;16.00;95.90;;;;;;5039980;28;20176;-68
2021/05/24 07:14:07;;;;;;;2.47;0.73;;;16.20;95.20;;;;;;5035426;28;20168;-68
2021/05/24 07:16:32;;;;;;;3.43;1.00;;;16.30;95.00;;;;;;5035338;28;20185;-68
2021/05/24 07:18:58;;;;;;;3.30;1.00;;;16.50;94.70;;;;;;5035857;28;20165;-68
2021/05/24 07:21:24;;;;;;;1.33;0.80;;;16.60;94.60;;;;;;5035304;28;20157;-68
2021/05/24 07:23:49;;;;;;;1.93;0.93;;;16.80;94.30;;;;;;5034829;28;20689;-68
2021/05/24 07:26:15;;;;;;;1.57;0.87;;;17.00;94.20;;;;;;5034982;28;20614;-68
2021/05/24 07:28:40;;;;;;;2.50;0.73;;;17.60;93.90;;;;;;5034971;28;20184;-68
2021/05/24 07:31:06;;;;;;;3.90;1.47;;;19.00;86.70;;;;;;5035876;28;20195;-68
2021/05/24 07:33:31;;;;;;;3.23;1.03;;;20.20;80.50;;;;;;5035527;28;20163;-69
2021/05/24 07:35:57;;;;;;;1.93;0.77;;;21.60;71.20;;;;;;5034914;28;20680;-68
2021/05/24 07:38:23;;;;;;;2.00;0.90;;;22.90;61.20;;;;;;5034617;28;20173;-69
2021/05/24 07:40:48;;;;;;;1.27;0.70;;;23.90;55.60;;;;;;5047847;28;20203;-69
2021/05/24 07:43:14;;;;;;;1.43;0.70;;;25.10;51.80;;;;;;5054540;28;20540;-69
2021/05/24 07:45:39;;;;;;;1.57;0.67;;;26.20;48.60;;;;;;5041547;28;20196;-69
2021/05/24 07:48:05;;;;;;;1.17;0.83;;;26.80;46.20;;;;;;5039140;28;20186;-69
2021/05/24 07:50:31;;;;;;;3.30;1.07;;;27.10;43.90;;;;;;5054565;28;20157;-69
2021/05/24 07:52:56;;;;;;;1.97;1.00;;;27.60;43.80;;;;;;5054507;28;20168;-69
2021/05/24 07:55:22;;;;;;;1.80;0.83;;;27.80;41.70;;;;;;5054499;28;20617;-69
2021/05/24 07:57:48;;;;;;;1.37;0.93;;;28.70;41.30;;;;;;5054596;28;20163;-69
2021/05/24 08:00:16;;;;;;;1.30;0.90;;;29.30;38.40;;;;;;5054674;28;20200;-69
2021/05/24 08:02:43;;;;;;;1.47;0.70;;;28.90;38.00;;;;;;5040858;28;20185;-69
2021/05/24 08:05:11;;;;;;;2.33;0.73;;;29.40;38.70;;;;;;5034166;28;20455;-68
2021/05/24 08:07:37;;;;;;;0.90;0.90;;;30.00;36.70;;;;;;5034111;28;20392;-68
2021/05/24 08:10:05;;;;;;;3.33;0.70;;;30.40;36.60;;;;;;5034152;28;20999;-69
2021/05/24 08:12:33;;;;;;;1.70;0.80;;;30.60;35.20;;;;;;5034183;28;20404;-70
2021/05/24 08:15:02;;;;;;;2.97;0.67;;;30.60;35.20;;;;;;5035316;28;20948;-70
2021/05/24 08:17:28;;;;;;;2.40;0.77;;;30.00;35.40;;;;;;5034117;28;20384;-68
2021/05/24 08:19:53;;;;;;;1.53;0.87;;;30.30;34.80;;;;;;5033913;28;20971;-68
2021/05/24 08:22:19;;;;;;;1.93;0.70;;;30.40;35.20;;;;;;5033936;28;20164;-68
2021/05/24 08:24:45;;;;;;;1.63;0.67;;;31.10;34.20;;;;;;5033757;28;20733;-68
2021/05/24 08:27:10;;;;;;;1.20;0.80;;;32.10;34.40;;;;;;5034378;28;20168;-68
2021/05/24 08:29:36;;;;;;;1.60;0.80;;;32.80;32.00;;;;;;5034483;28;20523;-68
2021/05/24 08:32:02;;;;;;;3.13;1.10;;;32.10;32.40;;;;;;5033737;28;20633;-69
2021/05/24 08:34:27;;;;;;;3.57;0.97;;;30.10;32.50;;;;;;5033095;28;20161;-69
2021/05/24 08:36:53;;;;;;;1.90;0.80;;;29.10;35.60;;;;;;5033527;28;20184;-68
2021/05/24 08:39:18;;;;;;;1.83;0.63;;;28.30;36.80;;;;;;5036801;28;20172;-68
2021/05/24 08:41:46;;;;;;;4.43;1.00;;;27.20;38.00;;;;;;5053440;28;20161;-68
2021/05/24 08:44:14;;;;;;;2.83;0.90;;;26.80;39.80;;;;;;5053518;28;20618;-68
2021/05/24 08:46:40;;;;;;;2.47;1.03;;;26.10;40.00;;;;;;5054176;28;20398;-68
2021/05/24 08:49:06;;;;;;;2.10;0.90;;;25.10;42.00;;;;;;5053259;28;20842;-68
2021/05/24 08:51:32;;;;;;;2.20;0.83;;;24.40;42.90;;;;;;5053376;28;20389;-68
2021/05/24 08:53:58;;;;;;;1.20;1.00;;;23.60;44.20;;;;;;5037709;28;20429;-68
2021/05/24 08:56:23;;;;;;;1.70;0.97;;;23.00;45.60;;;;;;5033390;28;20423;-68
2021/05/24 08:58:49;;;;;;;3.00;0.90;;;22.10;46.90;;;;;;5033384;28;20283;-68
2021/05/24 09:01:14;;;;;;;3.33;1.67;;;21.80;47.60;;;;;;5033941;28;20527;-68
2021/05/24 09:03:42;;;;;;;1.60;1.10;;;21.10;47.80;;;;;;5033145;28;20165;-68
2021/05/24 09:06:10;;;;;;;2.87;1.00;;;20.70;49.10;;;;;;5033302;28;20180;-68
2021/05/24 09:08:38;;;;;;;6.00;1.93;;;20.40;49.90;;;;;;5033230;28;20464;-68
2021/05/24 09:11:05;;;;;;;2.50;0.90;;;19.90;50.70;;;;;;5033140;28;20512;-67
2021/05/24 09:13:33;;;;;;;3.53;0.87;;;19.70;51.80;;;;;;5033194;28;20419;-68
2021/05/24 09:15:59;;;;;;;1.90;1.10;;;19.70;52.30;;;;;;5033800;28;20893;-68
2021/05/24 09:18:25;;;;;;;3.77;1.23;;;19.90;52.30;;;;;;5033051;28;20416;-68
2021/05/24 09:20:52;;;;;;;2.23;1.50;;;20.10;51.90;;;;;;5032982;28;20877;-68
2021/05/24 09:23:20;;;;;;;1.03;0.93;;;20.00;51.80;;;;;;5033187;28;20797;-68
2021/05/24 09:31:07;;;;;;;3.50;0.90;;;20.00;52.10;;;;;;5131739;27;20565;-68
2021/05/24 09:33:35;;;;;;;2.90;0.97;;;19.30;53.30;;;;;;5131479;27;20406;-69
2021/05/24 09:36:01;;;;;;;3.80;1.30;;;19.30;53.60;;;;;;5131097;27;20431;-69
2021/05/24 09:38:34;;;;;;;3.60;0.80;;;19.40;53.80;;;;;;5131512;28;20404;-69
2021/05/24 09:41:02;;;;;;;2.07;1.50;;;19.20;54.30;;;;;;5131236;28;20403;-69
2021/05/24 09:43:30;;;;;;;3.10;1.23;;;19.20;54.40;;;;;;5129355;28;20407;-69
2021/05/24 09:46:06;;;;;;;5.43;1.40;;;19.20;54.50;;;;;;5111118;28;20422;-69
2021/05/24 09:48:32;;;;;;;2.17;1.13;;;19.20;54.60;;;;;;5110638;28;20407;-69
2021/05/24 09:50:58;;;;;;;2.17;0.93;;;19.30;55.20;;;;;;5110755;28;20404;-68
2021/05/24 09:53:26;;;;;;;1.93;1.03;;;19.20;54.90;;;;;;5110615;28;20165;-68
2021/05/24 09:55:51;;;;;;;4.40;1.00;;;19.20;54.80;;;;;;5110756;28;20198;-68
2021/05/24 09:58:21;;;;;;;5.17;0.90;;;19.00;55.50;;;;;;5111022;28;20893;-69
2021/05/24 10:00:51;;;;;;;1.13;0.90;;;18.90;56.00;;;;;;5111065;28;20538;-68
2021/05/24 10:03:21;;;;;;;2.27;1.10;;;19.00;55.50;;;;;;5110330;28;20399;-68
2021/05/24 10:05:51;;;;;;;1.93;0.80;;;19.30;56.00;;;;;;5122706;28;20434;-68
2021/05/24 10:08:17;;;;;;;3.37;1.50;;;19.60;55.20;;;;;;5130550;28;20502;-68
2021/05/24 10:10:43;;;;;;;2.80;1.30;;;19.90;55.00;;;;;;5130636;28;20580;-68
2021/05/24 10:13:10;;;;;;;4.93;1.13;;;20.20;55.90;;;;;;5131282;28;20395;-69
2021/05/24 10:15:37;;;;;;;2.40;0.97;;;20.30;53.90;;;;;;5130555;28;20380;-69
2021/05/24 10:18:04;;;;;;;0.80;0.70;;;20.20;54.80;;;;;;5122868;28;20404;-68
2021/05/24 10:20:31;;;;;;;3.43;1.13;;;20.40;54.90;;;;;;5110177;28;20479;-68
2021/05/24 10:22:58;;;;;;;2.87;1.40;;;20.30;55.20;;;;;;5110022;28;20902;-68
2021/05/24 10:25:24;;;;;;;2.63;1.20;;;19.90;55.90;;;;;;5109980;28;20395;-68
2021/05/24 10:27:51;;;;;;;1.37;1.20;;;19.80;55.80;;;;;;5110356;28;20395;-69
2021/05/24 10:30:18;;;;;;;2.27;1.03;;;19.70;56.80;;;;;;5110879;28;20463;-69
2021/05/24 10:33:01;;;;;;;2.20;1.40;;;19.40;57.00;;;;;;5130306;28;20395;-68
2021/05/24 10:35:37;;;;;;;3.43;1.43;;;19.40;59.40;;;;;;5128641;28;20423;-68
2021/05/24 10:41:13;;;;;;;1.50;1.03;;;18.70;61.50;;;;;;5111068;27;20506;-70
2021/05/24 10:46:32;;;;;;;4.20;1.30;;;18.20;64.70;;;;;;5090664;27;20875;-69
2021/05/24 10:49:03;;;;;;;4.03;1.20;;;17.80;82.30;;;;;;5090743;28;20420;-69
2021/05/24 10:51:51;;;;;;;4.00;1.20;;;17.40;89.80;;;;;;5087511;28;20418;-69
2021/05/24 11:02:35;;;;;;;1.93;0.90;;;17.20;99.90;;;;;;5110926;27;20514;-69
2021/05/24 11:05:07;;;;;;;2.13;1.23;;;16.60;99.90;;;;;;5110508;28;20483;-69
2021/05/24 11:15:47;;;;;;;2.10;1.23;;;16.20;99.90;;;;;;5152160;27;20567;-69
2021/05/24 11:21:19;;;;;;;2.17;1.40;;;16.30;99.90;;;;;;5152032;27;20564;-68
2021/05/24 11:26:30;;;;;;;1.33;1.10;;;15.90;99.90;;;;;;5059836;28;20565;-68
2021/05/24 11:29:00;;;;;;;1.70;1.30;;;15.80;99.90;;;;;;5050518;28;20386;-68
2021/05/24 11:31:31;;;;;;;3.37;1.13;;;15.80;99.90;;;;;;5050270;28;20411;-68
2021/05/24 11:33:57;;;;;;;3.23;1.10;;;15.70;99.90;;;;;;5050187;28;20387;-68
2021/05/24 11:44:35;;;;;;;5.03;2.30;;;15.80;99.90;;;;;;5071287;27;20504;-69
2021/05/24 11:47:03;;;;;;;1.83;1.43;;;15.80;99.90;;;;;;5070520;28;20398;-69
2021/05/24 11:49:35;;;;;;;3.93;1.40;;;15.90;99.90;;;;;;5070254;28;20378;-69
2021/05/24 11:52:03;;;;;;;2.73;1.60;;;15.80;99.90;;;;;;5070282;28;20386;-68
2021/05/24 11:54:29;;;;;;;2.67;1.30;;;15.90;99.90;;;;;;5070388;28;20414;-69
2021/05/24 11:56:57;;;;;;;1.87;1.30;;;15.80;99.90;;;;;;5070072;28;20762;-68
2021/05/24 11:59:25;;;;;;;1.87;1.40;;;15.70;99.90;;;;;;5069863;28;20183;-68
2021/05/24 12:01:52;;;;;;;3.70;1.20;;;15.60;99.90;;;;;;5070010;28;20379;-68
2021/05/24 12:04:20;;;;;;;2.10;1.20;;;15.70;99.90;;;;;;5065026;28;20473;-68
2021/05/24 12:06:52;;;;;;;1.50;1.07;;;15.50;99.90;;;;;;5050083;28;20399;-68
2021/05/24 12:12:19;;;;;;;1.97;1.13;;;15.50;99.90;;;;;;5131693;27;20523;-68
2021/05/24 12:14:48;;;;;;;2.73;1.23;;;15.40;99.90;;;;;;5131191;28;20415;-68
2021/05/24 12:19:57;;;;;;;2.40;1.27;;;15.40;99.90;;;;;;5131317;27;21101;-68
2021/05/24 12:22:26;;;;;;;1.27;0.67;;;15.30;99.90;;;;;;5131463;28;20383;-69
2021/05/24 12:24:54;;;;;;;6.23;1.00;;;15.30;99.90;;;;;;5131213;28;20398;-68
2021/05/24 12:27:22;;;;;;;0.90;0.70;;;15.30;99.90;;;;;;5131426;28;20433;-68
2021/05/24 12:35:07;;;;;;;3.13;0.80;;;15.20;99.90;;;;;;5105711;27;20567;-68
2021/05/24 12:37:34;;;;;;;1.27;1.07;;;15.00;99.90;;;;;;5110914;28;20773;-69
2021/05/24 12:40:03;;;;;;;1.80;0.77;;;14.90;99.90;;;;;;5111021;28;20376;-69
2021/05/24 12:42:30;;;;;;;1.87;0.73;;;14.80;99.90;;;;;;5110920;28;20386;-69
2021/05/24 12:45:01;;;;;;;0.70;0.60;;;14.90;99.90;;;;;;5110655;28;20372;-69
2021/05/24 12:47:27;;;;;;;1.63;0.87;;;14.90;99.90;;;;;;5110724;28;20384;-69
2021/05/24 12:49:53;;;;;;;1.17;1.00;;;14.80;99.90;;;;;;5110754;28;20468;-69
2021/05/24 12:52:18;;;;;;;1.47;1.00;;;14.90;99.90;;;;;;5092662;28;20175;-69
2021/05/24 12:54:52;;;;;;;1.00;0.80;;;14.90;99.90;;;;;;5090312;28;20707;-69
2021/05/24 12:57:26;;;;;;;0.80;0.70;;;15.00;99.90;;;;;;5090206;28;20155;-69
2021/05/24 12:59:54;;;;;;;1.93;1.00;;;15.00;99.90;;;;;;5089965;28;20442;-69
2021/05/24 13:05:16;;;;;;;1.40;0.80;;;15.00;99.90;;;;;;5131000;27;21097;-68
2021/05/24 13:07:58;;;;;;;1.63;1.30;;;15.10;99.90;;;;;;5125768;28;20411;-68
2021/05/24 13:13:13;;;;;;;3.10;1.37;;;15.10;99.90;;;;;;5111065;27;20505;-69
2021/05/24 13:15:41;;;;;;;0.87;0.70;;;15.30;99.90;;;;;;5110787;28;20391;-69
2021/05/24 13:18:26;;;;;;;1.63;1.23;;;15.30;99.90;;;;;;5110696;28;20477;-69
2021/05/24 13:21:29;;;;;;;1.27;0.70;;;15.20;99.90;;;;;;5111314;28;20384;-70
2021/05/24 13:24:06;;;;;;;1.73;1.40;;;15.20;99.90;;;;;;5095773;28;20409;-69
2021/05/24 13:32:27;;;;;;;1.43;1.03;;;14.90;99.90;;;;;;5093500;28;20443;-69
2021/05/24 13:34:53;;;;;;;0.90;0.70;;;14.90;99.90;;;;;;5110944;28;20443;-70
2021/05/24 13:37:19;;;;;;;0.90;0.70;;;14.80;99.90;;;;;;5110793;28;20396;-70
2021/05/24 13:39:45;;;;;;;1.30;1.20;;;14.80;99.90;;;;;;5110378;28;20388;-69
2021/05/24 13:42:10;;;;;;;1.37;0.80;;;14.90;99.90;;;;;;5101992;28;20425;-70
2021/05/24 13:44:37;;;;;;;0.83;0.77;;;15.00;99.90;;;;;;5090032;28;20163;-69
2021/05/24 13:47:04;;;;;;;0.90;0.77;;;15.10;99.90;;;;;;5090031;28;20242;-69
2021/05/24 13:49:33;;;;;;;1.00;0.80;;;15.20;99.90;;;;;;5090528;28;20393;-70
2021/05/24 13:51:59;;;;;;;1.60;1.50;;;15.30;99.90;;;;;;5089845;28;20979;-70